Terminal Aerodrome Forecast
Issued by NWS

Home | Current Version | Previous Version | Text Only | Print | Product List | Glossary On
Versions: 1 2 3 4 5 6 7 8 9 10 11 12 13 14 15 16 17 18 19 20 21 22 23 24 25 26 27 28 29 30 31 32 33 34 35 36 37 38 39 40 41 42 43 44 45 46
000
FTUS45 KGJT 060001 AAA
TAFTEX
TAF AMD
KTEX 060001Z 0600/0624 VRB03KT P6SM VCSH SCT005 BKN025
      TEMPO 0600/0603 4SM -SHRA BR BKN005 OVC025
     FM060300 13004KT P6SM SCT040 BKN050
     FM060900 29003KT 4SM -RA BR OVC015
     FM061600 22005KT P6SM VCSH SCT025 BKN050
     FM062000 20005KT P6SM VCTS SCT050 BKN060CB=

USA.gov is the U.S. government's official web portal to all federal, state and local government web resources and services.